createdAt,value
2018-06-18T00:01:34.053Z,12.10
2018-06-18T00:04:02.598Z,12.10
2018-06-18T00:06:30.810Z,12.20
2018-06-18T00:09:00.057Z,12.20
2018-06-18T00:11:28.360Z,12.00
2018-06-18T00:13:56.614Z,11.90
2018-06-18T00:16:28.853Z,11.90
2018-06-18T00:18:57.655Z,12.00
2018-06-18T00:21:27.378Z,12.20
2018-06-18T00:23:55.608Z,12.30
2018-06-18T00:26:23.885Z,12.40
2018-06-18T00:28:52.086Z,12.40
2018-06-18T00:31:20.276Z,12.40
2018-06-18T00:33:50.178Z,12.30
2018-06-18T00:36:20.689Z,12.20
2018-06-18T00:38:51.921Z,12.20
2018-06-18T00:41:20.132Z,12.20
2018-06-18T00:43:48.385Z,12.20
2018-06-18T00:46:16.577Z,12.10
2018-06-18T00:48:44.785Z,12.20
2018-06-18T00:51:14.418Z,12.20
2018-06-18T00:53:43.546Z,12.10
2018-06-18T00:56:15.295Z,12.10
2018-06-18T00:58:43.761Z,12.20
2018-06-18T01:01:12.453Z,12.40
2018-06-18T01:03:40.685Z,12.70
2018-06-18T01:06:09.121Z,13.10
2018-06-18T01:08:37.314Z,13.30
2018-06-18T01:11:06.276Z,13.40
2018-06-18T01:13:35.068Z,13.40
2018-06-18T01:16:03.298Z,13.50
2018-06-18T01:18:31.524Z,13.60
2018-06-18T01:21:00.448Z,13.60
2018-06-18T01:23:53.777Z,13.70
2018-06-18T01:26:22.498Z,13.80
2018-06-18T01:28:51.278Z,13.80
2018-06-18T01:31:19.753Z,13.80
2018-06-18T01:33:48.482Z,13.90
2018-06-18T01:36:16.674Z,13.90
2018-06-18T01:38:45.821Z,14.00
2018-06-18T01:41:14.514Z,14.10
2018-06-18T01:43:42.733Z,14.20
2018-06-18T01:46:10.929Z,14.20
2018-06-18T01:48:40.162Z,14.30
2018-06-18T01:51:10.334Z,14.20
2018-06-18T01:53:38.517Z,14.20
2018-06-18T01:56:07.715Z,14.20
2018-06-18T01:58:35.917Z,14.30
2018-06-18T02:01:04.506Z,14.30
2018-06-18T02:03:32.689Z,14.30
2018-06-18T02:06:00.889Z,14.50
2018-06-18T02:08:29.105Z,14.60
2018-06-18T02:10:57.321Z,14.50
2018-06-18T02:13:27.040Z,14.50
2018-06-18T02:15:56.273Z,14.60
2018-06-18T02:18:24.503Z,14.60
2018-06-18T02:20:54.622Z,14.60
2018-06-18T02:23:22.834Z,14.50
2018-06-18T02:25:51.009Z,14.50
2018-06-18T02:28:24.609Z,14.60
2018-06-18T02:30:58.282Z,14.60
2018-06-18T02:33:33.209Z,14.50
2018-06-18T02:36:07.676Z,14.50
2018-06-18T02:38:41.078Z,14.40
2018-06-18T02:41:09.312Z,14.30
2018-06-18T02:43:37.557Z,14.00
2018-06-18T02:46:05.723Z,13.80
2018-06-18T02:48:34.723Z,13.60
2018-06-18T02:51:03.650Z,13.70
2018-06-18T02:53:31.853Z,13.80
2018-06-18T02:56:00.494Z,14.00
2018-06-18T02:58:28.735Z,14.20
2018-06-18T03:00:57.254Z,14.30
2018-06-18T03:03:26.390Z,14.20
2018-06-18T03:05:54.662Z,14.20
2018-06-18T03:08:22.885Z,14.10
2018-06-18T03:10:51.290Z,14.10
2018-06-18T03:13:19.518Z,14.00
2018-06-18T03:15:47.695Z,14.00
2018-06-18T03:19:19.832Z,14.10
2018-06-18T03:21:54.286Z,14.10
2018-06-18T03:24:28.122Z,14.20
2018-06-18T03:27:01.790Z,14.30
2018-06-18T03:29:31.878Z,14.40
2018-06-18T03:32:02.119Z,14.50
2018-06-18T03:34:30.357Z,14.50
2018-06-18T03:37:00.445Z,14.40
2018-06-18T03:39:28.678Z,14.50
2018-06-18T03:41:57.130Z,14.50
2018-06-18T03:45:33.569Z,14.50
2018-06-18T03:48:11.322Z,14.40
2018-06-18T03:53:09.086Z,14.10
2018-06-18T03:55:57.661Z,14.10
2018-06-18T03:58:25.917Z,14.00
2018-06-18T04:02:05.329Z,14.10
2018-06-18T04:04:45.798Z,14.20
2018-06-18T04:07:21.039Z,14.30
2018-06-18T04:09:54.785Z,14.40
2018-06-18T04:12:23.376Z,14.60
2018-06-18T04:14:51.626Z,14.70
2018-06-18T04:19:48.742Z,14.90
2018-06-18T04:22:17.157Z,15.10
2018-06-18T04:24:46.768Z,15.20
2018-06-18T04:27:15.577Z,15.20
2018-06-18T04:29:43.802Z,15.30
2018-06-18T04:32:12.833Z,15.30
2018-06-18T04:34:48.217Z,15.40
2018-06-18T04:37:17.445Z,15.50
2018-06-18T04:39:45.702Z,15.50
2018-06-18T04:42:19.398Z,15.60
2018-06-18T04:44:53.694Z,15.40
2018-06-18T04:47:27.453Z,15.30
2018-06-18T04:50:01.241Z,15.20
2018-06-18T04:52:29.495Z,15.20
2018-06-18T04:54:57.728Z,15.20
2018-06-18T04:57:26.359Z,15.10
2018-06-18T05:00:06.200Z,15.30
2018-06-18T05:02:34.777Z,15.30
2018-06-18T05:05:03.033Z,15.30
2018-06-18T05:07:32.398Z,15.20
2018-06-18T05:10:09.647Z,15.20
2018-06-18T05:12:37.927Z,15.50
2018-06-18T05:15:06.164Z,16.00
2018-06-18T05:17:35.065Z,16.50
2018-06-18T05:20:04.062Z,16.70
2018-06-18T05:22:32.230Z,16.90
2018-06-18T05:25:00.481Z,16.90
2018-06-18T05:27:31.624Z,16.90
2018-06-18T05:30:18.809Z,16.80
2018-06-18T05:32:47.542Z,16.90
2018-06-18T05:35:15.765Z,17.00
2018-06-18T05:38:22.469Z,17.20
2018-06-18T05:40:50.686Z,17.40
2018-06-18T05:43:18.912Z,17.70
2018-06-18T05:45:47.777Z,18.00
2018-06-18T05:48:16.485Z,18.20
2018-06-18T05:50:45.081Z,18.60
2018-06-18T05:53:13.277Z,19.20
2018-06-18T05:55:41.494Z,19.70
2018-06-18T05:58:09.746Z,20.10
2018-06-18T06:00:37.952Z,20.30
2018-06-18T06:03:06.633Z,20.20
2018-06-18T06:05:34.875Z,20.50
2018-06-18T06:08:03.570Z,20.70
2018-06-18T06:10:31.790Z,20.80
2018-06-18T06:13:00.369Z,21.00
2018-06-18T06:15:28.558Z,21.20
2018-06-18T06:17:56.740Z,21.30
2018-06-18T06:20:25.465Z,21.30
2018-06-18T06:22:54.291Z,21.20
2018-06-18T06:25:22.494Z,21.10
2018-06-18T06:27:50.750Z,21.00
2018-06-18T06:30:19.260Z,20.70
2018-06-18T06:32:48.421Z,20.70
2018-06-18T06:35:20.197Z,21.00
2018-06-18T06:37:48.908Z,21.30
2018-06-18T06:40:17.877Z,21.10
2018-06-18T06:42:46.086Z,21.30
2018-06-18T06:45:14.366Z,21.40
2018-06-18T06:50:10.511Z,21.70
2018-06-18T06:52:38.747Z,21.50
2018-06-18T06:55:07.038Z,21.60
2018-06-18T06:57:35.904Z,21.60
2018-06-18T07:00:04.254Z,21.30
2018-06-18T07:02:33.010Z,21.30
2018-06-18T07:05:01.591Z,21.20
2018-06-18T07:07:29.782Z,21.20
2018-06-18T07:09:58.016Z,21.30
2018-06-18T07:12:26.233Z,21.70
2018-06-18T07:14:54.781Z,22.00
2018-06-18T07:17:23.301Z,22.00
2018-06-18T07:19:51.501Z,22.10
2018-06-18T07:22:19.762Z,22.40
2018-06-18T07:24:48.074Z,22.80
2018-06-18T07:27:16.290Z,23.20
2018-06-18T07:29:45.751Z,23.20
2018-06-18T07:32:13.949Z,23.90
2018-06-18T07:34:43.943Z,24.30
2018-06-18T07:37:12.126Z,24.70
2018-06-18T07:39:41.094Z,24.70
2018-06-18T07:42:09.331Z,24.90
2018-06-18T07:44:37.968Z,25.40
2018-06-18T07:47:06.165Z,25.90
2018-06-18T07:49:35.072Z,26.30
2018-06-18T07:52:03.291Z,26.20
2018-06-18T07:54:32.130Z,26.10
2018-06-18T07:57:01.372Z,25.40
2018-06-18T07:59:29.605Z,24.40
2018-06-18T08:01:57.818Z,24.30
2018-06-18T08:04:26.363Z,24.30
2018-06-18T08:06:54.598Z,23.80
2018-06-18T08:09:23.714Z,23.40
2018-06-18T08:11:51.914Z,23.40
2018-06-18T08:14:20.126Z,23.30
2018-06-18T08:16:48.633Z,23.30
2018-06-18T08:19:16.863Z,23.50
2018-06-18T08:21:45.366Z,23.60
2018-06-18T08:24:13.565Z,23.90
2018-06-18T08:26:42.246Z,24.00
2018-06-18T08:29:10.453Z,24.00
2018-06-18T08:31:38.696Z,24.00
2018-06-18T08:34:07.250Z,24.40
2018-06-18T08:36:35.426Z,24.90
2018-06-18T08:39:06.614Z,25.00
2018-06-18T08:41:34.874Z,25.20
2018-06-18T08:44:04.010Z,25.70
2018-06-18T08:46:32.287Z,26.30
2018-06-18T08:49:06.030Z,26.70
2018-06-18T08:51:39.686Z,27.00
2018-06-18T08:54:14.129Z,27.70
2018-06-18T08:56:47.753Z,27.80
2018-06-18T08:59:21.310Z,27.10
2018-06-18T09:01:50.110Z,26.40
2018-06-18T09:05:21.269Z,25.70
2018-06-18T09:07:58.681Z,25.40
2018-06-18T09:10:26.990Z,26.20
2018-06-18T09:12:55.709Z,26.80
2018-06-18T09:15:24.715Z,27.20
2018-06-18T09:17:52.865Z,27.40
2018-06-18T09:20:21.407Z,28.10
2018-06-18T09:22:49.582Z,29.10
2018-06-18T09:25:17.794Z,29.50
2018-06-18T09:27:46.010Z,29.20
2018-06-18T09:30:14.190Z,29.20
2018-06-18T09:32:42.480Z,28.80
2018-06-18T09:35:10.814Z,29.10
2018-06-18T09:37:39.022Z,30.00
2018-06-18T09:40:07.234Z,28.80
2018-06-18T09:42:36.453Z,28.40
2018-06-18T09:45:05.413Z,28.20
2018-06-18T09:47:34.621Z,28.30
2018-06-18T09:51:08.845Z,28.10
2018-06-18T09:53:42.474Z,28.20
2018-06-18T09:56:16.123Z,27.00
2018-06-18T09:58:49.802Z,26.60
2018-06-18T10:01:24.359Z,26.00
2018-06-18T10:03:53.285Z,25.80
2018-06-18T10:06:23.716Z,25.80
2018-06-18T10:08:51.975Z,25.60
2018-06-18T10:11:20.245Z,25.40
2018-06-18T10:13:49.514Z,25.60
2018-06-18T10:16:17.770Z,25.50
2018-06-18T10:18:45.961Z,25.00
2018-06-18T10:21:14.189Z,25.00
2018-06-18T10:23:42.626Z,24.80
2018-06-18T10:26:10.882Z,25.00
2018-06-18T10:28:39.062Z,24.90
2018-06-18T10:31:07.233Z,25.10
2018-06-18T10:33:40.978Z,25.30
2018-06-18T10:36:14.695Z,25.20
2018-06-18T10:38:48.331Z,25.60
2018-06-18T10:41:22.840Z,26.00
2018-06-18T10:43:51.045Z,26.20
2018-06-18T10:46:19.241Z,26.30
2018-06-18T10:48:47.445Z,25.80
2018-06-18T10:51:15.640Z,25.00
2018-06-18T10:53:43.830Z,24.60
2018-06-18T10:56:11.990Z,24.60
2018-06-18T10:58:40.713Z,24.40
2018-06-18T11:01:10.965Z,24.10
2018-06-18T11:03:39.435Z,24.30
2018-06-18T11:06:12.963Z,23.50
2018-06-18T11:08:41.188Z,23.50
2018-06-18T11:11:10.658Z,23.70
2018-06-18T11:13:38.893Z,23.60
2018-06-18T11:16:07.196Z,23.90
2018-06-18T11:18:40.646Z,23.90
2018-06-18T11:21:14.399Z,24.10
2018-06-18T11:23:49.006Z,23.90
2018-06-18T11:26:23.025Z,23.50
2018-06-18T11:28:51.149Z,23.40
2018-06-18T11:31:19.453Z,23.30
2018-06-18T11:33:48.181Z,23.30
2018-06-18T11:36:16.406Z,23.10
2018-06-18T11:38:44.628Z,22.80
2018-06-18T11:41:13.484Z,22.60
2018-06-18T11:43:43.247Z,22.90
2018-06-18T11:46:12.027Z,23.10
2018-06-18T11:48:40.286Z,23.10
2018-06-18T11:51:09.130Z,23.20
2018-06-18T11:53:37.554Z,23.40
2018-06-18T11:56:05.751Z,23.80
2018-06-18T11:58:39.687Z,23.70
2018-06-18T12:01:13.609Z,23.80
2018-06-18T12:03:47.226Z,24.00
2018-06-18T12:06:20.820Z,24.40
2018-06-18T12:08:54.524Z,24.80
2018-06-18T12:11:22.734Z,24.80
2018-06-18T12:13:51.765Z,24.60
2018-06-18T12:16:20.361Z,24.90
2018-06-18T12:18:48.553Z,25.00
2018-06-18T12:21:17.253Z,25.20
2018-06-18T12:23:45.517Z,25.70
2018-06-18T12:26:13.777Z,24.90
2018-06-18T12:28:42.029Z,24.80
2018-06-18T12:31:10.197Z,24.80
2018-06-18T12:33:38.672Z,24.60
2018-06-18T12:36:09.588Z,24.80
2018-06-18T12:38:37.836Z,25.00
2018-06-18T12:41:06.024Z,25.10
2018-06-18T12:43:37.526Z,25.00
2018-06-18T12:46:11.870Z,24.90
2018-06-18T12:48:45.552Z,24.70
2018-06-18T12:51:19.125Z,25.10
2018-06-18T12:53:52.833Z,25.30
2018-06-18T12:56:57.225Z,25.00
2018-06-18T12:59:25.390Z,24.90
2018-06-18T13:01:58.003Z,24.80
2018-06-18T13:04:26.334Z,24.50
2018-06-18T13:06:55.077Z,24.50
2018-06-18T13:09:23.877Z,24.30
2018-06-18T13:11:52.114Z,24.40
2018-06-18T13:14:20.342Z,24.80
2018-06-18T13:16:48.508Z,25.20
2018-06-18T13:19:17.020Z,25.50
2018-06-18T13:21:45.203Z,26.10
2018-06-18T13:24:13.451Z,26.50
2018-06-18T13:26:42.538Z,26.00
2018-06-18T13:29:11.726Z,26.10
2018-06-18T13:31:40.215Z,26.10
2018-06-18T13:34:08.414Z,25.70
2018-06-18T13:36:36.666Z,25.50
2018-06-18T13:39:12.926Z,25.80
2018-06-18T13:41:46.644Z,25.60
2018-06-18T13:44:20.390Z,25.10
2018-06-18T13:46:54.943Z,25.00
2018-06-18T13:49:26.638Z,25.30
2018-06-18T13:51:54.903Z,25.20
2018-06-18T13:54:23.109Z,25.20
2018-06-18T13:56:51.282Z,25.20
2018-06-18T13:59:24.280Z,25.10
2018-06-18T14:01:53.381Z,25.00
2018-06-18T14:04:21.609Z,24.90
2018-06-18T14:06:51.345Z,24.60
2018-06-18T14:09:19.978Z,24.50
2018-06-18T14:11:49.025Z,24.20
2018-06-18T14:14:17.201Z,24.50
2018-06-18T14:16:46.104Z,24.60
2018-06-18T14:19:19.649Z,24.80
2018-06-18T14:21:47.862Z,24.80
2018-06-18T14:24:16.728Z,24.80
2018-06-18T14:26:44.957Z,24.60
2018-06-18T14:29:18.514Z,24.20
2018-06-18T14:31:53.217Z,24.50
2018-06-18T14:34:27.005Z,24.90
2018-06-18T14:37:01.010Z,25.00
2018-06-18T14:39:34.672Z,25.10
2018-06-18T14:44:32.005Z,25.10
2018-06-18T14:47:00.226Z,25.10
2018-06-18T14:49:29.825Z,25.00
2018-06-18T14:51:58.310Z,24.80
2018-06-18T14:56:57.079Z,24.40
2018-06-18T14:59:29.891Z,24.40
2018-06-18T15:01:58.786Z,24.40
2018-06-18T15:04:26.946Z,24.40
2018-06-18T15:06:55.153Z,24.10
2018-06-18T15:09:24.015Z,24.40
2018-06-18T15:11:52.109Z,24.30
2018-06-18T15:14:20.665Z,24.20
2018-06-18T15:16:48.897Z,24.40
2018-06-18T15:19:17.164Z,24.40
2018-06-18T15:21:50.218Z,24.20
2018-06-18T15:24:26.223Z,23.70
2018-06-18T15:26:58.359Z,23.80
2018-06-18T15:29:26.528Z,24.00
2018-06-18T15:31:54.798Z,24.20
2018-06-18T15:34:23.314Z,24.40
2018-06-18T15:36:52.121Z,24.40
2018-06-18T15:39:21.312Z,24.50
2018-06-18T15:41:49.930Z,24.30
2018-06-18T15:44:19.121Z,24.10
2018-06-18T15:46:47.306Z,24.00
2018-06-18T15:49:15.513Z,23.50
2018-06-18T15:51:44.037Z,23.60
2018-06-18T15:54:15.191Z,23.70
2018-06-18T15:56:44.328Z,23.70
2018-06-18T15:59:12.469Z,23.70
2018-06-18T16:01:40.806Z,23.80
2018-06-18T16:04:08.917Z,23.80
2018-06-18T16:09:11.905Z,23.10
2018-06-18T16:11:40.876Z,23.10
2018-06-18T16:14:09.951Z,23.00
2018-06-18T16:16:38.548Z,23.00
2018-06-18T16:19:06.754Z,23.20
2018-06-18T16:21:35.581Z,23.30
2018-06-18T16:24:04.225Z,23.10
2018-06-18T16:26:32.460Z,22.90
2018-06-18T16:29:00.646Z,23.00
2018-06-18T16:31:28.881Z,23.30
2018-06-18T16:33:57.093Z,23.50
2018-06-18T16:36:26.706Z,23.20
2018-06-18T16:38:54.929Z,23.20
2018-06-18T16:41:23.568Z,23.00
2018-06-18T16:43:51.963Z,23.00
2018-06-18T16:46:21.077Z,23.10
2018-06-18T16:48:50.304Z,23.20
2018-06-18T16:51:18.553Z,23.30
2018-06-18T16:53:46.890Z,23.10
2018-06-18T16:56:15.187Z,23.00
2018-06-18T16:58:44.543Z,22.90
2018-06-18T17:01:13.369Z,23.00
2018-06-18T17:03:41.641Z,23.10
2018-06-18T17:06:09.937Z,23.10
2018-06-18T17:08:39.177Z,23.10
2018-06-18T17:11:07.702Z,23.00
2018-06-18T17:13:36.504Z,23.00
2018-06-18T17:16:05.357Z,23.00
2018-06-18T17:18:33.721Z,23.00
2018-06-18T17:21:03.093Z,23.10
2018-06-18T17:23:31.464Z,22.90
2018-06-18T17:25:59.918Z,22.80
2018-06-18T17:28:28.178Z,22.80
2018-06-18T17:30:57.621Z,22.60
2018-06-18T17:33:25.931Z,22.60
2018-06-18T17:35:55.328Z,22.60
2018-06-18T17:38:25.762Z,22.40
2018-06-18T17:40:54.041Z,22.20
2018-06-18T17:43:22.927Z,22.20
2018-06-18T17:45:52.045Z,22.10
2018-06-18T17:48:21.061Z,22.10
2018-06-18T17:50:49.158Z,21.90
2018-06-18T17:53:17.334Z,22.00
2018-06-18T17:55:46.471Z,22.00
2018-06-18T17:58:14.655Z,21.90
2018-06-18T18:00:42.869Z,22.00
2018-06-18T18:03:11.133Z,22.00
2018-06-18T18:05:39.332Z,22.00
2018-06-18T18:08:07.605Z,21.90
2018-06-18T18:10:35.815Z,22.00
2018-06-18T18:13:04.103Z,22.00
2018-06-18T18:15:32.370Z,21.90
2018-06-18T18:18:00.749Z,21.80
2018-06-18T18:20:29.650Z,21.70
2018-06-18T18:22:58.347Z,21.70
2018-06-18T18:25:27.134Z,21.60
2018-06-18T18:27:55.825Z,21.50
2018-06-18T18:30:24.408Z,21.50
2018-06-18T18:32:52.645Z,21.40
2018-06-18T18:35:20.905Z,21.40
2018-06-18T18:37:51.954Z,21.30
2018-06-18T18:40:20.185Z,21.30
2018-06-18T18:42:49.419Z,21.30
2018-06-18T18:45:18.782Z,21.10
2018-06-18T18:47:47.013Z,21.00
2018-06-18T18:50:15.237Z,20.90
2018-06-18T18:52:43.454Z,20.70
2018-06-18T18:55:32.246Z,20.60
2018-06-18T18:58:13.201Z,20.50
2018-06-18T19:00:41.769Z,20.40
2018-06-18T19:03:12.094Z,20.40
2018-06-18T19:05:41.126Z,20.30
2018-06-18T19:08:11.274Z,20.30
2018-06-18T19:10:41.417Z,20.20
2018-06-18T19:13:13.157Z,20.20
2018-06-18T19:15:41.374Z,20.10
2018-06-18T19:18:10.249Z,20.00
2018-06-18T19:20:42.990Z,20.00
2018-06-18T19:23:11.237Z,19.90
2018-06-18T19:25:39.479Z,19.80
2018-06-18T19:28:08.065Z,19.80
2018-06-18T19:30:38.120Z,19.70
2018-06-18T19:33:13.214Z,19.70
2018-06-18T19:35:41.418Z,19.70
2018-06-18T19:38:09.605Z,19.60
2018-06-18T19:40:38.025Z,19.60
2018-06-18T19:43:06.947Z,19.50
2018-06-18T19:45:38.057Z,19.50
2018-06-18T19:48:13.048Z,19.50
2018-06-18T19:50:42.464Z,19.40
2018-06-18T19:53:10.693Z,19.20
2018-06-18T19:55:38.930Z,19.10
2018-06-18T19:58:07.115Z,19.00
2018-06-18T20:00:42.121Z,19.00
2018-06-18T20:03:10.801Z,19.00
2018-06-18T20:05:39.090Z,18.90
2018-06-18T20:08:10.478Z,18.80
2018-06-18T20:10:38.681Z,18.80
2018-06-18T20:13:06.959Z,18.70
2018-06-18T20:15:35.160Z,18.60
2018-06-18T20:18:03.402Z,18.60
2018-06-18T20:20:31.608Z,18.50
2018-06-18T20:23:00.414Z,18.40
2018-06-18T20:25:35.286Z,18.40
2018-06-18T20:28:04.919Z,18.30
2018-06-18T20:30:33.114Z,18.20
2018-06-18T20:33:01.298Z,18.10
2018-06-18T20:35:33.512Z,18.00
2018-06-18T20:38:01.738Z,18.00
2018-06-18T20:40:30.429Z,17.90
2018-06-18T20:42:59.381Z,17.90
2018-06-18T20:45:28.650Z,17.90
2018-06-18T20:47:56.870Z,17.90
2018-06-18T20:50:25.120Z,17.80
2018-06-18T20:52:53.277Z,17.80
2018-06-18T20:55:21.509Z,17.70
2018-06-18T20:57:49.736Z,17.60
2018-06-18T21:00:18.822Z,17.50
2018-06-18T21:02:47.062Z,17.50
2018-06-18T21:05:16.767Z,17.50
2018-06-18T21:07:45.004Z,17.40
2018-06-18T21:10:13.209Z,17.40
2018-06-18T21:12:42.091Z,17.40
2018-06-18T21:15:10.333Z,17.20
2018-06-18T21:17:38.507Z,17.20
2018-06-18T21:20:06.730Z,17.10
2018-06-18T21:22:35.450Z,17.10
2018-06-18T21:25:04.199Z,17.00
2018-06-18T21:27:32.385Z,16.90
2018-06-18T21:30:00.637Z,16.80
2018-06-18T21:32:29.513Z,16.80
2018-06-18T21:34:57.796Z,16.80
2018-06-18T21:37:26.301Z,16.80
2018-06-18T21:39:54.896Z,16.90
2018-06-18T21:42:23.141Z,16.90
2018-06-18T21:44:56.977Z,17.00
2018-06-18T21:47:25.158Z,17.00
2018-06-18T21:49:53.702Z,17.00
2018-06-18T21:52:22.066Z,17.00
2018-06-18T21:54:50.843Z,17.10
2018-06-18T21:59:47.181Z,17.10
2018-06-18T22:02:15.358Z,17.00
2018-06-18T22:04:44.221Z,17.10
2018-06-18T22:07:12.904Z,17.10
2018-06-18T22:09:41.325Z,17.10
2018-06-18T22:12:09.946Z,17.10
2018-06-18T22:14:38.755Z,17.10
2018-06-18T22:17:07.625Z,17.00
2018-06-18T22:19:36.525Z,17.10
2018-06-18T22:22:04.770Z,17.10
2018-06-18T22:24:33.295Z,17.10
2018-06-18T22:27:01.474Z,17.00
2018-06-18T22:29:29.649Z,17.00
2018-06-18T22:31:57.928Z,17.10
2018-06-18T22:34:26.182Z,17.10
2018-06-18T22:36:54.437Z,17.10
2018-06-18T22:39:23.635Z,17.10
2018-06-18T22:41:53.587Z,17.10
2018-06-18T22:44:21.810Z,17.00
2018-06-18T22:46:51.461Z,17.00
2018-06-18T22:49:20.366Z,17.00
2018-06-18T22:51:48.550Z,16.90
2018-06-18T22:54:16.785Z,17.00
2018-06-18T22:56:45.051Z,17.00
2018-06-18T22:59:13.826Z,17.00
2018-06-18T23:01:42.021Z,17.00
2018-06-18T23:04:11.093Z,17.00
2018-06-18T23:06:39.317Z,16.90
2018-06-18T23:09:09.805Z,16.90
2018-06-18T23:11:38.195Z,16.90
2018-06-18T23:14:09.954Z,16.90
2018-06-18T23:16:38.205Z,16.90
2018-06-18T23:19:06.388Z,17.00
2018-06-18T23:21:34.638Z,17.00
2018-06-18T23:24:04.079Z,16.90
2018-06-18T23:26:32.331Z,16.90
2018-06-18T23:29:03.635Z,16.90
2018-06-18T23:31:31.889Z,16.90
2018-06-18T23:34:00.486Z,16.90
2018-06-18T23:36:29.001Z,16.90
2018-06-18T23:38:57.493Z,16.90
2018-06-18T23:41:27.253Z,17.00
2018-06-18T23:43:55.466Z,16.90
2018-06-18T23:46:23.757Z,16.90
2018-06-18T23:48:52.353Z,16.80
2018-06-18T23:51:20.606Z,16.80
2018-06-18T23:53:48.789Z,16.80
2018-06-18T23:56:17.917Z,16.80
2018-06-18T23:58:46.519Z,16.80
